Time;durP1;ratioP1;P1;durP2;ratioP2;P2;SDS_P1;SDS_P2;PMS_P1;PMS_P2;Temp;Humidity;BMP_temperature;BMP_pressure;BME280_temperature;BME280_humidity;BME280_pressure;Samples;Min_cycle;Max_cycle;Signal;HPM_P1;HPM_P2
2022/11/17 00:00:16;;;;;;;7.93;3.90;;;;;;;;;;7390301;19;20002;-74
2022/11/17 00:02:41;;;;;;;10.82;4.07;;;;;;;;;;7389738;19;20069;-75
2022/11/17 00:05:07;;;;;;;11.40;4.78;;;;;;;;;;7386113;19;20464;-74
2022/11/17 00:07:33;;;;;;;12.75;4.45;;;;;;;;;;7388770;19;20078;-73
2022/11/17 00:09:58;;;;;;;12.25;4.40;;;;;;;;;;7389859;19;20007;-73
2022/11/17 00:15:07;;;;;;;9.90;4.40;;;;;;;;;;7388084;19;20009;-73
2022/11/17 00:17:33;;;;;;;10.60;4.15;;;;;;;;;;7387537;19;20006;-74
2022/11/17 00:22:42;;;;;;;10.05;4.68;;;;;;;;;;7390148;19;20009;-73
2022/11/17 00:25:07;;;;;;;10.65;4.63;;;;;;;;;;7381991;19;20007;-74
2022/11/17 00:27:33;;;;;;;10.43;4.15;;;;;;;;;;7388919;19;20014;-74
2022/11/17 00:29:58;;;;;;;10.20;4.50;;;;;;;;;;7388316;19;19998;-75
2022/11/17 00:35:07;;;;;;;8.25;3.92;;;;;;;;;;7388286;19;20006;-74
2022/11/17 00:37:36;;;;;;;7.82;4.10;;;;;;;;;;7389512;19;19998;-75
2022/11/17 00:40:03;;;;;;;12.68;4.72;;;;;;;;;;7389071;19;20027;-72
2022/11/17 00:42:28;;;;;;;9.15;3.70;;;;;;;;;;7388324;19;20023;-75
2022/11/17 00:44:54;;;;;;;8.85;3.88;;;;;;;;;;7389295;19;19995;-74
2022/11/17 00:47:19;;;;;;;10.30;3.50;;;;;;;;;;7388883;19;20006;-75
2022/11/17 00:49:44;;;;;;;11.38;3.70;;;;;;;;;;7388712;19;20021;-75
2022/11/17 00:52:10;;;;;;;7.85;3.60;;;;;;;;;;7389695;19;20029;-74
2022/11/17 00:54:35;;;;;;;11.25;3.75;;;;;;;;;;7387332;19;20026;-74
2022/11/17 00:57:00;;;;;;;10.02;3.22;;;;;;;;;;7388761;19;20660;-74
2022/11/17 00:59:26;;;;;;;7.53;3.08;;;;;;;;;;7389004;19;19999;-74
2022/11/17 01:01:57;;;;;;;9.20;3.30;;;;;;;;;;7386714;19;20459;-74
2022/11/17 01:04:23;;;;;;;9.82;3.78;;;;;;;;;;7387721;19;20014;-76
2022/11/17 01:06:48;;;;;;;11.00;3.55;;;;;;;;;;7387307;19;19995;-73
2022/11/17 01:09:19;;;;;;;8.90;3.45;;;;;;;;;;7389170;19;20002;-74
2022/11/17 01:11:47;;;;;;;12.57;3.55;;;;;;;;;;7387913;19;20011;-74
2022/11/17 01:14:25;;;;;;;8.50;3.10;;;;;;;;;;7386292;19;20013;-73
2022/11/17 01:16:51;;;;;;;10.27;3.70;;;;;;;;;;7389112;19;20007;-74
2022/11/17 01:19:17;;;;;;;10.75;3.72;;;;;;;;;;7390558;19;20318;-73
2022/11/17 01:21:43;;;;;;;9.05;3.45;;;;;;;;;;7388070;19;19999;-73
2022/11/17 01:24:10;;;;;;;8.10;3.40;;;;;;;;;;7387513;19;20006;-73
2022/11/17 01:26:37;;;;;;;9.85;3.13;;;;;;;;;;7385193;19;20083;-74
2022/11/17 01:29:04;;;;;;;5.93;3.00;;;;;;;;;;7388154;19;20007;-73
2022/11/17 01:31:36;;;;;;;8.30;3.40;;;;;;;;;;7387640;19;20002;-74
2022/11/17 01:34:01;;;;;;;9.30;3.70;;;;;;;;;;7387080;19;20011;-74
2022/11/17 01:37:17;;;;;;;8.02;3.10;;;;;;;;;;7388105;19;20007;-74
2022/11/17 01:39:23;;;;;;;10.45;3.42;;;;;;;;;;7387179;19;20011;-74
2022/11/17 01:41:49;;;;;;;13.25;3.90;;;;;;;;;;7387092;19;20009;-74
2022/11/17 01:44:43;;;;;;;10.35;3.33;;;;;;;;;;7387541;19;20006;-74
2022/11/17 01:47:15;;;;;;;13.23;3.42;;;;;;;;;;7387534;19;20002;-74
2022/11/17 01:49:40;;;;;;;9.40;3.95;;;;;;;;;;7387104;19;20020;-74
2022/11/17 01:52:09;;;;;;;9.80;3.33;;;;;;;;;;7386490;19;19999;-74
2022/11/17 01:54:39;;;;;;;8.93;3.15;;;;;;;;;;7384059;19;20066;-74
2022/11/17 01:57:11;;;;;;;10.07;3.58;;;;;;;;;;7387183;19;19991;-74
2022/11/17 01:59:41;;;;;;;6.03;3.13;;;;;;;;;;7387673;19;19995;-74
2022/11/17 02:02:07;;;;;;;9.70;3.42;;;;;;;;;;7386557;19;19999;-75
2022/11/17 02:04:42;;;;;;;9.00;3.30;;;;;;;;;;7384096;19;20013;-73
2022/11/17 02:07:23;;;;;;;7.70;2.85;;;;;;;;;;7386359;19;20013;-74
2022/11/17 02:09:51;;;;;;;9.30;3.17;;;;;;;;;;7387948;19;19995;-74
2022/11/17 02:12:17;;;;;;;7.80;2.92;;;;;;;;;;7386176;19;19999;-74
2022/11/17 02:14:43;;;;;;;9.52;3.28;;;;;;;;;;7384821;19;20039;-73
2022/11/17 02:17:10;;;;;;;7.90;3.10;;;;;;;;;;7386215;19;19999;-74
2022/11/17 02:19:41;;;;;;;9.73;3.45;;;;;;;;;;7384383;19;19999;-74
2022/11/17 02:22:30;;;;;;;11.80;3.70;;;;;;;;;;7385350;19;20058;-74
2022/11/17 02:25:41;;;;;;;8.20;2.83;;;;;;;;;;7384114;19;20016;-74
2022/11/17 02:28:13;;;;;;;7.30;3.22;;;;;;;;;;7385393;19;19995;-72
2022/11/17 02:30:57;;;;;;;16.48;3.50;;;;;;;;;;7389558;19;20430;-73
2022/11/17 02:34:02;;;;;;;8.93;3.38;;;;;;;;;;7390596;19;20028;-74
2022/11/17 02:36:53;;;;;;;9.43;3.30;;;;;;;;;;7392803;19;20066;-72
2022/11/17 02:39:25;;;;;;;6.55;3.25;;;;;;;;;;7393059;19;20435;-73
2022/11/17 02:41:55;;;;;;;;;;;;;;;;;;7394502;19;19991;-74
2022/11/17 02:44:54;;;;;;;10.63;3.70;;;;;;;;;;7391790;19;19911;-74
2022/11/17 02:47:26;;;;;;;8.73;3.65;;;;;;;;;;7393275;19;20345;-74
2022/11/17 02:50:00;;;;;;;11.27;3.40;;;;;;;;;;7391318;19;20007;-74
2022/11/17 02:52:28;;;;;;;7.15;3.10;;;;;;;;;;7393918;19;20085;-74
2022/11/17 02:54:59;;;;;;;9.32;3.63;;;;;;;;;;7388593;19;20006;-74
2022/11/17 02:57:38;;;;;;;8.65;3.42;;;;;;;;;;7396987;19;20123;-74
2022/11/17 03:00:16;;;;;;;8.38;3.70;;;;;;;;;;7390955;19;20003;-73
2022/11/17 03:03:09;;;;;;;7.38;3.45;;;;;;;;;;7396410;19;20002;-73
2022/11/17 03:05:52;;;;;;;9.43;3.70;;;;;;;;;;7396856;19;20005;-73
2022/11/17 03:08:36;;;;;;;8.95;3.38;;;;;;;;;;7393067;19;20002;-73
2022/11/17 03:11:04;;;;;;;7.75;4.00;;;;;;;;;;7392552;19;20025;-73
2022/11/17 03:13:49;;;;;;;9.48;3.45;;;;;;;;;;7391895;19;20023;-74
2022/11/17 03:16:34;;;;;;;8.75;3.47;;;;;;;;;;7392774;19;20016;-74
2022/11/17 03:19:24;;;;;;;9.52;3.38;;;;;;;;;;7396321;19;20453;-74
2022/11/17 03:22:16;;;;;;;8.85;3.47;;;;;;;;;;7392067;19;20006;-74
2022/11/17 03:24:48;;;;;;;7.15;3.33;;;;;;;;;;7391273;19;20357;-74
2022/11/17 03:27:20;;;;;;;7.30;3.33;;;;;;;;;;7392495;19;20007;-74
2022/11/17 03:29:49;;;;;;;9.27;4.00;;;;;;;;;;7392379;19;20009;-74
2022/11/17 03:32:16;;;;;;;10.50;3.80;;;;;;;;;;7391632;19;20003;-74
2022/11/17 03:34:50;;;;;;;11.85;3.30;;;;;;;;;;7390374;19;20013;-74
2022/11/17 03:37:18;;;;;;;7.68;3.70;;;;;;;;;;7392314;19;19999;-74
2022/11/17 03:39:51;;;;;;;10.52;3.60;;;;;;;;;;7392149;19;20002;-74
2022/11/17 03:42:24;;;;;;;8.98;3.92;;;;;;;;;;7388613;19;20002;-74
2022/11/17 03:44:54;;;;;;;9.82;4.20;;;;;;;;;;7389753;19;20006;-74
2022/11/17 03:47:24;;;;;;;9.45;3.75;;;;;;;;;;7390188;19;20006;-74
2022/11/17 03:50:05;;;;;;;9.38;4.03;;;;;;;;;;7392132;19;20433;-74
2022/11/17 03:52:32;;;;;;;8.68;3.50;;;;;;;;;;7388697;19;20472;-74
2022/11/17 03:54:58;;;;;;;9.23;3.33;;;;;;;;;;7389311;19;19998;-75
2022/11/17 03:57:45;;;;;;;5.28;3.20;;;;;;;;;;7391113;19;20002;-74
2022/11/17 04:00:13;;;;;;;8.30;3.25;;;;;;;;;;7391074;19;20342;-73
2022/11/17 04:02:43;;;;;;;7.00;3.25;;;;;;;;;;7390015;19;20002;-74
2022/11/17 04:05:10;;;;;;;8.25;3.42;;;;;;;;;;7387268;19;19999;-74
2022/11/17 04:07:40;;;;;;;7.80;3.05;;;;;;;;;;7390407;19;20384;-74
2022/11/17 04:10:08;;;;;;;10.55;3.95;;;;;;;;;;7390269;19;20460;-74
2022/11/17 04:18:02;;;;;;;11.55;6.93;;;;;;;;;;7389935;19;20004;-74
2022/11/17 04:20:34;;;;;;;14.20;8.00;;;;;;;;;;7389765;19;20002;-73
2022/11/17 04:23:13;;;;;;;8.60;3.83;;;;;;;;;;7388686;19;20013;-75
2022/11/17 04:28:37;;;;;;;6.88;3.25;;;;;;;;;;7390021;19;20047;-72
2022/11/17 04:31:21;;;;;;;8.38;3.00;;;;;;;;;;7388909;19;19994;-73
2022/11/17 04:33:49;;;;;;;5.90;2.85;;;;;;;;;;7387472;19;20002;-75
2022/11/17 04:36:18;;;;;;;5.10;2.60;;;;;;;;;;7392444;19;20002;-74
2022/11/17 04:38:45;;;;;;;5.38;2.30;;;;;;;;;;7389757;19;20024;-73
2022/11/17 04:43:57;;;;;;;5.72;2.53;;;;;;;;;;7388812;19;20077;-74
2022/11/17 04:46:23;;;;;;;6.68;2.50;;;;;;;;;;7387300;19;19999;-74
2022/11/17 04:48:53;;;;;;;4.03;2.28;;;;;;;;;;7389112;19;20002;-73
2022/11/17 04:51:19;;;;;;;5.72;2.80;;;;;;;;;;7386355;19;20372;-73
2022/11/17 04:53:45;;;;;;;5.65;2.20;;;;;;;;;;7387593;19;20024;-74
2022/11/17 04:56:12;;;;;;;4.75;2.40;;;;;;;;;;7388780;19;20512;-73
2022/11/17 04:58:37;;;;;;;4.38;2.28;;;;;;;;;;7389041;19;20119;-75
2022/11/17 05:01:17;;;;;;;4.82;2.90;;;;;;;;;;7390830;19;20102;-72
2022/11/17 05:03:46;;;;;;;10.02;4.57;;;;;;;;;;7387822;19;19998;-73
2022/11/17 05:06:15;;;;;;;20.83;13.43;;;;;;;;;;7387330;19;19994;-73
2022/11/17 05:08:41;;;;;;;17.35;9.90;;;;;;;;;;7388687;19;20080;-74
2022/11/17 05:13:51;;;;;;;11.77;5.18;;;;;;;;;;7387466;19;19997;-74
2022/11/17 05:19:03;;;;;;;8.60;4.80;;;;;;;;;;7388825;19;20009;-75
2022/11/17 05:21:29;;;;;;;7.38;3.90;;;;;;;;;;7388206;19;20010;-74
2022/11/17 05:23:55;;;;;;;6.65;4.07;;;;;;;;;;7387883;19;20406;-73
2022/11/17 05:26:23;;;;;;;9.43;3.35;;;;;;;;;;7387432;19;20019;-73
2022/11/17 05:28:48;;;;;;;5.10;3.22;;;;;;;;;;7388879;19;20006;-73
2022/11/17 05:31:14;;;;;;;5.38;3.55;;;;;;;;;;7386606;19;20013;-72
2022/11/17 05:33:40;;;;;;;6.60;3.00;;;;;;;;;;7386887;19;20453;-73
2022/11/17 05:36:06;;;;;;;5.55;2.72;;;;;;;;;;7390196;19;19994;-73
2022/11/17 05:38:31;;;;;;;6.70;2.65;;;;;;;;;;7392696;19;20357;-73
2022/11/17 05:40:56;;;;;;;6.00;3.13;;;;;;;;;;7388109;19;19998;-73
2022/11/17 05:43:22;;;;;;;7.15;2.45;;;;;;;;;;7387505;19;20542;-74
2022/11/17 05:45:47;;;;;;;7.65;2.67;;;;;;;;;;7387209;19;20020;-73
2022/11/17 05:48:12;;;;;;;5.80;2.60;;;;;;;;;;7391209;19;20453;-74
2022/11/17 05:50:40;;;;;;;7.72;3.10;;;;;;;;;;7389416;19;20401;-73
2022/11/17 05:53:06;;;;;;;5.75;2.80;;;;;;;;;;7388126;19;19995;-74
2022/11/17 05:55:31;;;;;;;5.93;3.15;;;;;;;;;;7390866;19;20463;-73
2022/11/17 05:58:02;;;;;;;6.15;2.60;;;;;;;;;;7390724;19;20107;-73
2022/11/17 06:00:28;;;;;;;;;;;;;;;;;;7392712;19;20015;-73
2022/11/17 06:02:59;;;;;;;10.10;3.15;;;;;;;;;;7386488;19;19949;-74
2022/11/17 06:05:24;;;;;;;4.47;2.78;;;;;;;;;;7392123;19;19999;-75
2022/11/17 06:07:53;;;;;;;6.47;2.88;;;;;;;;;;7392898;19;20764;-72
2022/11/17 06:10:19;;;;;;;9.82;3.22;;;;;;;;;;7387846;19;20032;-74
2022/11/17 06:12:44;;;;;;;8.30;3.53;;;;;;;;;;7390327;19;20003;-73
2022/11/17 06:15:09;;;;;;;7.97;3.15;;;;;;;;;;7383982;19;20002;-73
2022/11/17 06:17:40;;;;;;;7.40;3.20;;;;;;;;;;7392886;19;19995;-72
2022/11/17 06:20:14;;;;;;;6.90;3.70;;;;;;;;;;7392932;19;20399;-73
2022/11/17 06:22:45;;;;;;;6.80;3.22;;;;;;;;;;7395557;19;20298;-72
2022/11/17 06:25:11;;;;;;;7.40;3.78;;;;;;;;;;7392791;19;19998;-72
2022/11/17 06:27:38;;;;;;;6.38;3.30;;;;;;;;;;7395640;19;20574;-72
2022/11/17 06:30:04;;;;;;;7.43;3.42;;;;;;;;;;7397299;19;20499;-73
2022/11/17 06:32:31;;;;;;;6.22;3.67;;;;;;;;;;7395028;19;20019;-73
2022/11/17 06:34:58;;;;;;;9.35;3.45;;;;;;;;;;7392313;19;19999;-74
2022/11/17 06:37:24;;;;;;;8.63;3.72;;;;;;;;;;7387269;19;20028;-73
2022/11/17 06:39:49;;;;;;;7.13;3.00;;;;;;;;;;7392028;19;20003;-72
2022/11/17 06:42:14;;;;;;;7.47;3.08;;;;;;;;;;7390960;19;20473;-72
2022/11/17 06:44:40;;;;;;;6.28;2.90;;;;;;;;;;7393274;19;19999;-72
2022/11/17 06:47:05;;;;;;;6.32;2.90;;;;;;;;;;7387858;19;19999;-72
2022/11/17 06:49:30;;;;;;;7.35;2.90;;;;;;;;;;7396827;19;20012;-73
2022/11/17 06:51:59;;;;;;;10.00;2.90;;;;;;;;;;7394256;19;19991;-73
2022/11/17 06:54:24;;;;;;;6.55;2.70;;;;;;;;;;7395050;19;20027;-72
2022/11/17 06:56:51;;;;;;;5.00;2.67;;;;;;;;;;7394473;19;20062;-72
2022/11/17 06:59:16;;;;;;;7.45;2.63;;;;;;;;;;7394170;19;20038;-73
2022/11/17 07:01:42;;;;;;;7.45;2.38;;;;;;;;;;7396357;19;20074;-72
2022/11/17 07:04:08;;;;;;;9.13;2.80;;;;;;;;;;7393789;19;20003;-73
2022/11/17 07:06:37;;;;;;;4.85;2.60;;;;;;;;;;7393566;19;20037;-73
2022/11/17 07:09:03;;;;;;;6.18;2.60;;;;;;;;;;7394321;19;19994;-73
2022/11/17 07:11:29;;;;;;;5.32;2.53;;;;;;;;;;7394412;19;19999;-73
2022/11/17 07:13:56;;;;;;;6.07;2.30;;;;;;;;;;7394152;19;19994;-73
2022/11/17 07:16:21;;;;;;;8.07;2.22;;;;;;;;;;7395337;19;19994;-73
2022/11/17 07:18:46;;;;;;;3.95;2.22;;;;;;;;;;7391537;19;20390;-73
2022/11/17 07:21:13;;;;;;;4.03;2.10;;;;;;;;;;7393081;19;20065;-72
2022/11/17 07:23:39;;;;;;;5.63;2.72;;;;;;;;;;7394094;19;19995;-73
2022/11/17 07:26:05;;;;;;;4.32;2.50;;;;;;;;;;7396589;19;20023;-73
2022/11/17 07:28:32;;;;;;;4.75;2.03;;;;;;;;;;7396454;19;19995;-72
2022/11/17 07:31:01;;;;;;;5.30;2.72;;;;;;;;;;7393430;19;19998;-72
2022/11/17 07:33:26;;;;;;;5.53;2.05;;;;;;;;;;7393234;19;20457;-72
2022/11/17 07:35:52;;;;;;;6.47;2.17;;;;;;;;;;7391164;19;19999;-74
2022/11/17 07:38:17;;;;;;;7.63;2.80;;;;;;;;;;7391656;19;20005;-72
2022/11/17 07:40:43;;;;;;;6.25;2.75;;;;;;;;;;7390254;19;20067;-74
2022/11/17 07:43:08;;;;;;;7.32;2.13;;;;;;;;;;7390062;19;20544;-72
2022/11/17 07:45:34;;;;;;;7.00;1.98;;;;;;;;;;7390926;19;20351;-73
2022/11/17 07:48:02;;;;;;;4.65;2.13;;;;;;;;;;7392692;19;20539;-73
2022/11/17 07:50:29;;;;;;;7.03;2.05;;;;;;;;;;7394140;19;19994;-72
2022/11/17 07:52:56;;;;;;;7.00;2.53;;;;;;;;;;7392526;19;20091;-71
2022/11/17 07:55:22;;;;;;;7.72;2.08;;;;;;;;;;7393875;19;20351;-72
2022/11/17 07:57:55;;;;;;;6.63;2.35;;;;;;;;;;7394912;19;19998;-74
2022/11/17 08:00:21;;;;;;;5.07;2.30;;;;;;;;;;7394489;19;19998;-72
2022/11/17 08:02:46;;;;;;;9.13;2.65;;;;;;;;;;7390690;19;20479;-72
2022/11/17 08:05:12;;;;;;;8.40;2.03;;;;;;;;;;7392746;19;20643;-71
2022/11/17 08:07:37;;;;;;;4.45;2.33;;;;;;;;;;7393959;19;20469;-71
2022/11/17 08:10:03;;;;;;;4.40;1.92;;;;;;;;;;7393718;19;20096;-71
2022/11/17 08:12:28;;;;;;;4.70;2.10;;;;;;;;;;7394685;19;19994;-81
2022/11/17 08:14:53;;;;;;;6.68;2.58;;;;;;;;;;7390259;19;20460;-71
2022/11/17 08:17:19;;;;;;;7.65;2.20;;;;;;;;;;7394085;19;20005;-71
2022/11/17 08:19:44;;;;;;;4.45;2.10;;;;;;;;;;7392647;19;19994;-71
2022/11/17 08:22:09;;;;;;;4.07;2.00;;;;;;;;;;7393431;19;20005;-71
2022/11/17 08:24:35;;;;;;;4.28;2.03;;;;;;;;;;7389302;19;20015;-71
2022/11/17 08:27:00;;;;;;;5.93;2.00;;;;;;;;;;7387720;19;20011;-72
2022/11/17 08:29:25;;;;;;;5.35;1.98;;;;;;;;;;7391864;19;20003;-72
2022/11/17 08:31:50;;;;;;;5.45;2.00;;;;;;;;;;7391862;19;20003;-71
2022/11/17 08:34:16;;;;;;;5.45;2.47;;;;;;;;;;7390696;19;20003;-71
2022/11/17 08:36:41;;;;;;;6.00;2.22;;;;;;;;;;7391033;19;20002;-71
2022/11/17 08:39:07;;;;;;;3.28;1.70;;;;;;;;;;7391861;19;20002;-71
2022/11/17 08:41:32;;;;;;;6.88;2.00;;;;;;;;;;7391850;19;20002;-71
2022/11/17 08:43:57;;;;;;;4.32;1.98;;;;;;;;;;7391948;19;20002;-71
2022/11/17 08:46:24;;;;;;;5.40;1.95;;;;;;;;;;7392377;19;20007;-72
2022/11/17 08:48:50;;;;;;;5.40;2.17;;;;;;;;;;7390973;19;20006;-71
2022/11/17 08:51:15;;;;;;;3.95;1.70;;;;;;;;;;7387727;19;20003;-71
2022/11/17 08:53:40;;;;;;;3.50;1.60;;;;;;;;;;7389278;19;20070;-72
2022/11/17 08:56:07;;;;;;;4.43;2.28;;;;;;;;;;7392513;19;20355;-72
2022/11/17 08:58:37;;;;;;;4.25;1.70;;;;;;;;;;7391307;19;20014;-72
2022/11/17 09:01:06;;;;;;;2.70;1.60;;;;;;;;;;7390949;19;20449;-72
2022/11/17 09:03:31;;;;;;;5.32;1.85;;;;;;;;;;7390317;19;20349;-72
2022/11/17 09:05:57;;;;;;;9.73;4.28;;;;;;;;;;7389562;19;19999;-71
2022/11/17 09:08:22;;;;;;;6.10;1.63;;;;;;;;;;7392212;19;20398;-71
2022/11/17 09:10:50;;;;;;;7.82;1.70;;;;;;;;;;7389917;19;20118;-70
2022/11/17 09:13:15;;;;;;;8.23;2.55;;;;;;;;;;7389270;19;20010;-71
2022/11/17 09:15:41;;;;;;;4.18;1.77;;;;;;;;;;7390091;19;20023;-71
2022/11/17 09:18:06;;;;;;;5.93;1.90;;;;;;;;;;7390609;19;20053;-73
2022/11/17 09:20:31;;;;;;;4.47;1.25;;;;;;;;;;7388989;19;20361;-72
2022/11/17 09:23:01;;;;;;;8.90;1.65;;;;;;;;;;7388921;19;19994;-73
2022/11/17 09:25:27;;;;;;;5.57;1.50;;;;;;;;;;7391590;19;20472;-72
2022/11/17 09:27:52;;;;;;;9.18;1.58;;;;;;;;;;7391683;19;20049;-73
2022/11/17 09:30:20;;;;;;;5.85;1.75;;;;;;;;;;7391646;19;20451;-73
2022/11/17 09:32:47;;;;;;;3.67;1.90;;;;;;;;;;7389852;19;20365;-72
2022/11/17 09:35:13;;;;;;;4.22;1.48;;;;;;;;;;7389969;19;20015;-72
2022/11/17 09:37:38;;;;;;;5.72;1.35;;;;;;;;;;7390589;19;20010;-73
2022/11/17 09:40:04;;;;;;;4.68;1.30;;;;;;;;;;7398207;19;20468;-72
2022/11/17 09:42:30;;;;;;;7.60;1.83;;;;;;;;;;7396215;19;20609;-72
2022/11/17 09:45:09;;;;;;;7.55;1.55;;;;;;;;;;7392457;19;20002;-72
2022/11/17 09:47:42;;;;;;;6.57;1.45;;;;;;;;;;7397450;19;20005;-72
2022/11/17 09:50:28;;;;;;;5.80;1.27;;;;;;;;;;7398963;19;20039;-73
2022/11/17 09:53:09;;;;;;;3.78;1.42;;;;;;;;;;7394561;19;20651;-73
2022/11/17 09:55:37;;;;;;;7.82;1.60;;;;;;;;;;7398580;19;20003;-72
2022/11/17 09:58:29;;;;;;;3.78;1.27;;;;;;;;;;7398496;19;20007;-73
2022/11/17 10:00:54;;;;;;;5.20;1.40;;;;;;;;;;7397170;19;20002;-73
2022/11/17 10:03:34;;;;;;;4.82;1.30;;;;;;;;;;7396385;19;19999;-72
2022/11/17 10:06:04;;;;;;;5.93;1.40;;;;;;;;;;7397518;19;20078;-72
2022/11/17 10:08:41;;;;;;;7.50;1.58;;;;;;;;;;7399562;19;20029;-73
2022/11/17 10:14:14;;;;;;;7.70;2.33;;;;;;;;;;7397788;19;20500;-72
2022/11/17 10:16:51;;;;;;;9.73;2.22;;;;;;;;;;7396051;19;20002;-73
2022/11/17 10:19:25;;;;;;;6.75;1.60;;;;;;;;;;7395759;19;20074;-73
2022/11/17 10:22:12;;;;;;;4.97;1.33;;;;;;;;;;7397461;19;20006;-73
2022/11/17 10:24:49;;;;;;;8.68;1.67;;;;;;;;;;7392709;19;20019;-73
2022/11/17 10:27:27;;;;;;;5.30;1.52;;;;;;;;;;7397877;19;19994;-72
2022/11/17 10:29:57;;;;;;;7.25;2.08;;;;;;;;;;7397793;19;19995;-72
2022/11/17 10:32:23;;;;;;;6.32;2.30;;;;;;;;;;7397247;19;20017;-73
2022/11/17 10:34:48;;;;;;;5.68;1.77;;;;;;;;;;7396435;19;19998;-72
2022/11/17 10:37:14;;;;;;;8.80;2.22;;;;;;;;;;7396124;19;19998;-72
2022/11/17 10:39:41;;;;;;;10.88;2.35;;;;;;;;;;7396671;19;19998;-73
2022/11/17 10:42:16;;;;;;;7.90;1.73;;;;;;;;;;7395786;19;20002;-73
2022/11/17 10:44:44;;;;;;;5.85;2.00;;;;;;;;;;7393011;19;19994;-74
2022/11/17 10:47:32;;;;;;;12.52;1.90;;;;;;;;;;7395579;19;20003;-73
2022/11/17 10:50:23;;;;;;;7.63;1.52;;;;;;;;;;7394697;19;20480;-73
2022/11/17 10:52:51;;;;;;;6.97;1.60;;;;;;;;;;7393445;19;20010;-73
2022/11/17 10:55:32;;;;;;;7.90;1.85;;;;;;;;;;7392781;19;20006;-73
2022/11/17 10:58:17;;;;;;;9.82;1.90;;;;;;;;;;7394935;19;20010;-72
2022/11/17 11:00:43;;;;;;;8.48;1.60;;;;;;;;;;7392054;19;20010;-73
2022/11/17 11:03:18;;;;;;;7.38;1.80;;;;;;;;;;7395086;19;20015;-73
2022/11/17 11:06:05;;;;;;;12.05;5.78;;;;;;;;;;7390078;19;20013;-73
2022/11/17 11:08:43;;;;;;;5.97;2.58;;;;;;;;;;7392329;19;20009;-73
2022/11/17 11:11:20;;;;;;;7.03;2.00;;;;;;;;;;7390248;19;20006;-73
2022/11/17 11:13:57;;;;;;;6.68;1.70;;;;;;;;;;7389648;19;20550;-74
2022/11/17 11:16:27;;;;;;;5.10;1.52;;;;;;;;;;7395204;19;20023;-74
2022/11/17 11:18:53;;;;;;;5.75;1.45;;;;;;;;;;7393178;19;20576;-73
2022/11/17 11:21:39;;;;;;;6.15;1.80;;;;;;;;;;7394001;19;20016;-74
2022/11/17 11:24:20;;;;;;;4.25;1.40;;;;;;;;;;7395045;19;20028;-74
2022/11/17 11:27:21;;;;;;;5.57;1.38;;;;;;;;;;7390687;19;20062;-73
2022/11/17 11:30:19;;;;;;;5.00;1.52;;;;;;;;;;7392893;19;20115;-73
2022/11/17 11:33:00;;;;;;;8.20;2.63;;;;;;;;;;7389227;19;20010;-73
2022/11/17 11:35:48;;;;;;;6.53;1.50;;;;;;;;;;7397732;19;20080;-74
2022/11/17 11:38:23;;;;;;;6.95;1.52;;;;;;;;;;7403817;19;20024;-73
2022/11/17 11:41:11;;;;;;;7.85;1.88;;;;;;;;;;7397909;19;20007;-73
2022/11/17 11:43:46;;;;;;;7.45;1.50;;;;;;;;;;7393632;19;20366;-74
2022/11/17 11:46:12;;;;;;;3.65;1.40;;;;;;;;;;7392152;19;20007;-74
2022/11/17 11:48:40;;;;;;;4.20;1.27;;;;;;;;;;7392501;19;20022;-73
2022/11/17 11:51:18;;;;;;;4.30;1.40;;;;;;;;;;7390409;19;20002;-73
2022/11/17 11:54:01;;;;;;;4.88;1.40;;;;;;;;;;7393070;19;19999;-73
2022/11/17 11:56:32;;;;;;;3.47;1.17;;;;;;;;;;7395129;19;20010;-73
2022/11/17 11:59:25;;;;;;;6.80;1.55;;;;;;;;;;7392124;19;20006;-74
2022/11/17 12:02:09;;;;;;;5.55;1.42;;;;;;;;;;7388666;19;20062;-72
2022/11/17 12:04:39;;;;;;;4.82;1.33;;;;;;;;;;7389889;19;19999;-74
2022/11/17 12:07:19;;;;;;;7.50;1.60;;;;;;;;;;7390455;19;20023;-73
2022/11/17 12:10:11;;;;;;;4.88;1.45;;;;;;;;;;7392046;19;20003;-73
2022/11/17 12:12:38;;;;;;;2.67;1.33;;;;;;;;;;7389535;19;20498;-75
2022/11/17 12:15:11;;;;;;;5.03;1.38;;;;;;;;;;7390459;19;20426;-74
2022/11/17 12:18:00;;;;;;;3.33;1.27;;;;;;;;;;7393177;19;20012;-75
2022/11/17 12:20:37;;;;;;;6.70;1.40;;;;;;;;;;7394493;19;20005;-74
2022/11/17 12:23:06;;;;;;;2.38;0.98;;;;;;;;;;7391148;19;20011;-74
2022/11/17 12:25:34;;;;;;;2.70;1.00;;;;;;;;;;7391259;19;20010;-72
2022/11/17 12:28:37;;;;;;;3.13;0.88;;;;;;;;;;7393169;19;20003;-73
2022/11/17 12:31:28;;;;;;;2.30;0.93;;;;;;;;;;7390356;19;20006;-72
2022/11/17 12:33:54;;;;;;;4.88;1.20;;;;;;;;;;7392160;19;20014;-73
2022/11/17 12:36:22;;;;;;;9.63;1.50;;;;;;;;;;7392857;19;20003;-74
2022/11/17 12:38:48;;;;;;;2.78;0.85;;;;;;;;;;7391189;19;20002;-74
2022/11/17 12:41:13;;;;;;;3.67;1.35;;;;;;;;;;7391273;19;20002;-74
2022/11/17 12:43:39;;;;;;;3.28;0.93;;;;;;;;;;7390640;19;20003;-74
2022/11/17 12:46:37;;;;;;;3.78;1.52;;;;;;;;;;7392427;19;19999;-73
2022/11/17 12:49:14;;;;;;;4.75;1.48;;;;;;;;;;7389847;19;20005;-74
2022/11/17 12:51:56;;;;;;;7.07;1.70;;;;;;;;;;7391451;19;19990;-74
2022/11/17 12:54:33;;;;;;;4.72;1.33;;;;;;;;;;7391638;19;20005;-74
2022/11/17 12:57:13;;;;;;;3.55;1.30;;;;;;;;;;7393049;19;19999;-75
2022/11/17 13:00:06;;;;;;;3.53;1.15;;;;;;;;;;7391100;19;20464;-73
2022/11/17 13:02:44;;;;;;;4.80;1.50;;;;;;;;;;7388976;19;20411;-74
2022/11/17 13:05:22;;;;;;;5.40;1.35;;;;;;;;;;7388586;19;20394;-74
2022/11/17 13:07:47;;;;;;;4.28;1.20;;;;;;;;;;7390301;19;20006;-75
2022/11/17 13:10:31;;;;;;;3.10;0.90;;;;;;;;;;7390514;19;20075;-74
2022/11/17 13:13:15;;;;;;;4.60;1.10;;;;;;;;;;7388062;19;19998;-74
2022/11/17 13:15:41;;;;;;;7.50;1.48;;;;;;;;;;7391234;19;20029;-74
2022/11/17 13:18:10;;;;;;;8.90;1.65;;;;;;;;;;7388152;19;20004;-73
2022/11/17 13:20:38;;;;;;;4.50;1.25;;;;;;;;;;7390598;19;20259;-74
2022/11/17 13:23:06;;;;;;;3.35;1.00;;;;;;;;;;7389117;19;20010;-74
2022/11/17 13:25:32;;;;;;;4.20;1.55;;;;;;;;;;7387781;19;20011;-73
2022/11/17 13:27:57;;;;;;;4.32;1.50;;;;;;;;;;7390705;19;19991;-74
2022/11/17 13:30:28;;;;;;;4.22;1.33;;;;;;;;;;7390292;19;20011;-73
2022/11/17 13:32:55;;;;;;;6.30;1.42;;;;;;;;;;7386740;19;20572;-73
2022/11/17 13:35:26;;;;;;;8.15;1.55;;;;;;;;;;7387417;19;20009;-73
2022/11/17 13:38:10;;;;;;;;;;;;;;;;;;7390890;19;20467;-73
2022/11/17 13:40:36;;;;;;;4.75;1.27;;;;;;;;;;7388645;19;19915;-73
2022/11/17 13:43:03;;;;;;;2.83;1.20;;;;;;;;;;7387912;19;20468;-74
2022/11/17 13:45:28;;;;;;;3.00;1.00;;;;;;;;;;7387849;19;20023;-74
2022/11/17 13:47:55;;;;;;;4.63;1.25;;;;;;;;;;7389773;19;20472;-74
2022/11/17 13:50:20;;;;;;;4.30;1.15;;;;;;;;;;7390773;19;20649;-74
2022/11/17 13:52:46;;;;;;;5.47;1.40;;;;;;;;;;7387335;19;20010;-74
2022/11/17 13:55:18;;;;;;;7.50;1.33;;;;;;;;;;7387614;19;19999;-73
2022/11/17 13:57:52;;;;;;;4.28;1.20;;;;;;;;;;7389187;19;20092;-74
2022/11/17 14:00:18;;;;;;;4.72;1.45;;;;;;;;;;7390617;19;19999;-73
2022/11/17 14:02:59;;;;;;;4.90;1.20;;;;;;;;;;7387654;19;20017;-73
2022/11/17 14:05:29;;;;;;;4.13;1.02;;;;;;;;;;7388822;19;20033;-73
2022/11/17 14:07:56;;;;;;;6.15;1.23;;;;;;;;;;7389458;19;20002;-73
2022/11/17 14:10:21;;;;;;;5.05;1.40;;;;;;;;;;7390847;19;20003;-72
2022/11/17 14:12:48;;;;;;;3.45;1.13;;;;;;;;;;7384997;19;20089;-73
2022/11/17 14:15:22;;;;;;;3.90;1.05;;;;;;;;;;7388187;19;20009;-74
2022/11/17 14:17:53;;;;;;;5.75;1.48;;;;;;;;;;7389976;19;20002;-73
2022/11/17 14:20:24;;;;;;;3.83;1.13;;;;;;;;;;7389215;19;20007;-74
2022/11/17 14:23:02;;;;;;;6.38;1.20;;;;;;;;;;7388010;19;20400;-73
2022/11/17 14:25:34;;;;;;;4.32;1.30;;;;;;;;;;7390006;19;20077;-73
2022/11/17 14:28:00;;;;;;;5.43;1.27;;;;;;;;;;7397300;19;20475;-73
2022/11/17 14:30:26;;;;;;;8.32;1.65;;;;;;;;;;7395897;19;20003;-73
2022/11/17 14:32:51;;;;;;;9.05;1.77;;;;;;;;;;7394929;19;20460;-74
2022/11/17 14:35:16;;;;;;;9.93;2.30;;;;;;;;;;7394814;19;20158;-74
2022/11/17 14:37:42;;;;;;;9.00;1.80;;;;;;;;;;7396633;19;20785;-74
2022/11/17 14:40:15;;;;;;;8.38;1.70;;;;;;;;;;7395670;19;20465;-74
2022/11/17 14:42:41;;;;;;;3.28;1.45;;;;;;;;;;7394944;19;20396;-74
2022/11/17 14:45:10;;;;;;;6.13;1.63;;;;;;;;;;7391523;19;20020;-74
2022/11/17 14:47:36;;;;;;;8.35;1.77;;;;;;;;;;7396564;19;20006;-75
2022/11/17 14:50:02;;;;;;;6.05;1.65;;;;;;;;;;7397082;19;19999;-74
2022/11/17 14:52:27;;;;;;;7.75;1.42;;;;;;;;;;7397250;19;20002;-74
2022/11/17 14:54:52;;;;;;;6.88;1.77;;;;;;;;;;7392825;19;20442;-73
2022/11/17 14:57:18;;;;;;;9.63;1.70;;;;;;;;;;7395516;19;19998;-74
2022/11/17 14:59:43;;;;;;;8.02;2.08;;;;;;;;;;7396347;19;19998;-74
2022/11/17 15:02:10;;;;;;;8.13;1.75;;;;;;;;;;7395770;19;20122;-74
2022/11/17 15:04:39;;;;;;;5.03;1.83;;;;;;;;;;7391611;19;19999;-73
2022/11/17 15:07:04;;;;;;;6.75;1.95;;;;;;;;;;7394540;19;20002;-74
2022/11/17 15:09:29;;;;;;;9.82;1.92;;;;;;;;;;7394903;19;19999;-73
2022/11/17 15:11:55;;;;;;;7.13;1.50;;;;;;;;;;7392224;19;20070;-75
2022/11/17 15:14:20;;;;;;;7.43;1.70;;;;;;;;;;7391484;19;20357;-75
2022/11/17 15:16:45;;;;;;;10.85;1.73;;;;;;;;;;7392295;19;20467;-73
2022/11/17 15:19:11;;;;;;;10.95;1.92;;;;;;;;;;7380923;19;20011;-73
2022/11/17 15:21:37;;;;;;;6.72;1.60;;;;;;;;;;7388221;19;20002;-71
2022/11/17 15:24:03;;;;;;;14.70;1.80;;;;;;;;;;7386952;19;20006;-73
2022/11/17 15:26:29;;;;;;;11.25;1.90;;;;;;;;;;7389540;19;20010;-73
2022/11/17 15:28:56;;;;;;;9.80;1.92;;;;;;;;;;7387785;19;20006;-70
2022/11/17 15:31:22;;;;;;;6.70;1.80;;;;;;;;;;7388331;19;20020;-69